Latest Coastal Weather Observations for Swanbourne

IDW60701

Issued at 6:22 am WST Wednesday 6 May 2015 (issued every 10 minutes, with the page automatically refreshed every 10 minutes)

About coastal observations | Map of coastal stations | Coastal observations for WA | Marine services | Other Formats
Station Details ID: 009215 Name: SWANBOURNE Lat: -31.96 Lon: 115.76 Height: 40.96 m
Data from the previous 72 hours. | See also: Recent months at Swanbourne
Date/Time
WST
Temp

°C
Wind Pressure Rain
since 9am
mm
Weather Cloud Vis
km
Sea
Height
m
Swell
Dir
 
Speed
knots
Gust
knots
hPa Trend Height
m
Period
s
Dir
06/06:00am 9.7 ESE 6 8 - - 0.0 - - - - - - -
06/05:30am 9.8 ESE 6 7 - - 0.0 - - - - - - -
06/05:00am 9.8 ESE 6 7 - - 0.0 - - - - - - -
06/04:30am 9.5 E 7 7 - - 0.0 - - - - - - -
06/04:00am 9.7 ESE 7 8 - - 0.0 - - - - - - -
06/03:30am 9.7 ESE 7 8 - - 0.0 - - - - - - -
06/03:00am 10.5 SE 7 9 - - 0.0 - - - - - - -
06/02:30am 10.6 ESE 6 8 - - 0.0 - - - - - - -
06/02:00am 10.7 ESE 6 8 - - 0.0 - - - - - - -
06/01:30am 10.9 ESE 6 7 - - 0.0 - - - - - - -
06/01:00am 11.0 ESE 6 7 - - 0.0 - - - - - - -
06/12:30am 11.4 ESE 6 7 - - 0.0 - - - - - - -
06/12:00am 11.5 ESE 6 7 - - 0.0 - - - - - - -
 
Date/Time
WST
Temp

°C
Wind Pressure Rain
since 9am
mm
Weather Cloud Vis
km
Sea
Height
m
Swell
Dir
 
Speed
knots
Gust
knots
hPa Trend Height
m
Period
s
Dir
05/11:30pm 11.9 ESE 6 8 - - 0.0 - - - - - - -
05/11:00pm 12.3 ESE 6 8 - - 0.0 - - - - - - -
05/10:30pm 12.4 ESE 6 7 - - 0.0 - - - - - - -
05/10:00pm 12.8 ESE 5 7 - - 0.0 - - - - - - -
05/09:30pm 13.4 SE 5 7 - - 0.0 - - - - - - -
05/09:00pm 14.0 SSE 6 9 - - 0.0 - - - - - - -
05/08:30pm 14.3 SSE 7 11 - - 0.0 - - - - - - -
05/08:00pm 14.1 SSE 5 8 - - 0.0 - - - - - - -
05/07:30pm 14.3 S 6 8 - - 0.0 - - - - - - -
05/07:00pm 14.9 S 6 10 - - 0.0 - - - - - - -
05/06:30pm 15.1 S 6 7 - - 0.0 - - - - - - -
05/06:00pm 15.7 S 6 10 - - 0.0 - - - - - - -
05/05:30pm 16.6 SSW 8 13 - - 0.0 - - - - - - -
05/05:00pm 17.5 SSW 9 14 - - 0.0 - - - - - - -
05/04:30pm 18.3 SSW 9 15 - - 0.0 - - - - - - -
05/04:00pm 18.7 SSW 11 16 - - 0.0 - - - - - - -
05/03:30pm 18.8 SSW 12 16 - - 0.0 - - - - - - -
05/03:00pm 19.6 SSW 9 14 - - 0.0 - - - - - - -
05/02:30pm 19.4 SW 10 13 - - 0.0 - - - - - - -
05/02:00pm 20.3 SSW 7 11 - - 0.0 - - - - - - -
05/01:30pm 19.7 SW 7 11 - - 0.0 - - - - - - -
05/01:00pm 18.7 SSE 6 11 - - 0.0 - - - - - - -
05/12:30pm 19.9 S 6 12 - - 0.0 - - - - - - -
05/12:00pm 19.4 SE 7 12 - - 0.0 - - - - - - -
05/11:30am 19.1 SE 6 11 - - 0.0 - - - - - - -
05/11:00am 18.3 ESE 7 13 - - 0.0 - - - - - - -
05/10:30am 17.8 SE 7 11 - - 0.0 - - - - - - -
05/10:00am 16.4 ESE 7 13 - - 0.0 - - - - - - -
05/09:30am 15.5 ESE 7 11 - - 0.0 - - - - - - -
05/09:00am 14.1 ESE 6 9 - - 0.4 - - - - - - -
05/08:30am 12.2 E 5 8 - - 0.4 - - - - - - -
05/08:00am 10.0 E 6 8 - - 0.4 - - - - - - -
05/07:30am 8.3 ENE 7 9 - - 0.4 - - - - - - -
05/07:00am 7.9 ENE 6 8 - - 0.4 - - - - - - -
05/06:30am 8.1 E 6 8 - - 0.4 - - - - - - -
05/06:00am 8.5 E 7 8 - - 0.4 - - - - - - -
05/05:30am 7.9 E 7 8 - - 0.4 - - - - - - -
05/05:00am 8.1 E 7 8 - - 0.4 - - - - - - -
05/04:30am 8.6 E 7 8 - - 0.4 - - - - - - -
05/04:00am 8.8 E 6 7 - - 0.4 - - - - - - -
05/03:30am 9.1 ESE 7 8 - - 0.4 - - - - - - -
05/03:00am 9.2 E 7 8 - - 0.4 - - - - - - -
05/02:30am 9.1 E 7 8 - - 0.4 - - - - - - -
05/02:00am 9.3 E 6 8 - - 0.4 - - - - - - -
05/01:30am 9.7 ESE 7 8 - - 0.4 - - - - - - -
05/01:00am 10.1 ESE 7 9 - - 0.4 - - - - - - -
05/12:30am 10.1 ESE 7 8 - - 0.4 - - - - - - -
05/12:00am 10.0 ESE 5 7 - - 0.4 - - - - - - -
 
Date/Time
WST
Temp

°C
Wind Pressure Rain
since 9am
mm
Weather Cloud Vis
km
Sea
Height
m
Swell
Dir
 
Speed
knots
Gust
knots
hPa Trend Height
m
Period
s
Dir
04/11:30pm 10.3 ESE 6 9 - - 0.4 - - - - - - -
04/11:00pm 10.4 ESE 6 7 - - 0.4 - - - - - - -
04/10:30pm 10.6 SE 6 7 - - 0.4 - - - - - - -
04/10:00pm 11.3 SE 7 11 - - 0.4 - - - - - - -
04/09:30pm 11.5 SE 7 10 - - 0.4 - - - - - - -
04/09:00pm 12.2 SE 8 13 - - 0.4 - - - - - - -
04/08:30pm 12.5 SSE 7 11 - - 0.4 - - - - - - -
04/08:00pm 13.0 SSE 8 13 - - 0.4 - - - - - - -
04/07:30pm 12.9 SSE 6 9 - - 0.4 - - - - - - -
04/07:00pm 13.5 SSE 7 10 - - 0.4 - - - - - - -
04/06:30pm 13.6 SSE 6 11 - - 0.4 - - - - - - -
04/06:00pm 14.8 SSE 9 13 - - 0.4 - - - - - - -
04/05:30pm 15.0 S 10 14 - - 0.4 - - - - - - -
04/05:00pm 15.3 S 10 16 - - 0.4 - - - - - - -
04/04:30pm 15.6 S 12 19 - - 0.4 - - - - - - -
04/04:00pm 16.1 S 12 20 - - 0.4 - - - - - - -
04/03:30pm 16.2 S 9 14 - - 0.4 - - - - - - -
04/03:00pm 14.9 SSW 11 19 - - 0.4 Rain - - - - - -
04/02:30pm 16.2 S 10 17 - - 0.2 - - - - - - -
04/02:00pm 16.6 SSW 11 18 - - 0.2 - - - - - - -
04/01:30pm 14.5 S 7 11 - - 0.2 - - - - - - -
04/01:00pm 16.5 S 11 16 - - 0.0 - - - - - - -
04/12:30pm 17.3 S 8 14 - - 0.0 - - - - - - -
04/12:00pm 15.0 S 10 17 - - 0.0 - - - - - - -
04/11:30am 14.9 SE 5 11 - - 0.0 - - - - - - -
04/11:00am 15.7 SSE 6 10 - - 0.0 - - - - - - -
04/10:30am 15.6 ESE 4 8 - - 0.0 - - - - - - -
04/10:00am 14.6 SE 5 9 - - 0.0 - - - - - - -
04/09:30am 13.5 SE 7 11 - - 0.0 - - - - - - -
04/09:00am 11.9 SSE 11 19 - - 5.8 - - - - - - -
04/08:30am 12.6 ENE 3 5 - - 5.8 - - - - - - -
04/08:00am 10.6 E 7 9 - - 5.8 - - - - - - -
04/07:30am 9.8 ESE 6 9 - - 5.8 - - - - - - -
04/07:00am 9.7 ESE 3 5 - - 5.8 - - - - - - -
04/06:30am 9.8 ESE 4 6 - - 5.8 - - - - - - -
04/06:00am 10.8 SSE 8 14 - - 5.4 - - - - - - -
04/05:36am 11.9 SSW 16 29 - - 5.4 - - - - - - -
04/05:30am 11.2 SSW 14 21 - - 5.4 - - - - - - -
04/05:00am 10.9 WNW 8 25 - - 5.4 - - - - - - -
04/04:59am 10.8 NNE 7 25 - - 5.4 - - - - - - -
04/04:30am 10.8 SE 3 6 - - 5.2 - - - - - - -
04/04:00am 11.6 WSW 15 32 - - 4.6 - - - - - - -
04/03:47am 13.2 WSW 18 28 - - 1.6 - - - - - - -
04/03:30am 14.1 SW 19 28 - - 1.2 - - - - - - -
04/03:00am 11.8 SW 23 37 - - 1.2 Rain - - - - - -
04/02:30am 14.8 SW 19 30 - - 1.0 - - - - - - -
04/02:12am 14.8 SW 19 29 - - 1.0 - - - - - - -
04/02:00am 14.3 SW 19 28 - - 1.0 - - - - - - -
04/01:30am 13.8 WSW 23 34 - - 0.6 - - - - - - -
04/01:00am 14.8 SW 23 34 - - 0.6 - - - - - - -
04/12:35am 15.8 WSW 23 33 - - 0.6 - - - - - - -
04/12:30am 15.9 WSW 24 33 - - 0.6 - - - - - - -
04/12:00am 15.7 WSW 21 32 - - 0.6 - - - - - - -
 
Date/Time
WST
Temp

°C
Wind Pressure Rain
since 9am
mm
Weather Cloud Vis
km
Sea
Height
m
Swell
Dir
 
Speed
knots
Gust
knots
hPa Trend Height
m
Period
s
Dir
03/11:36pm 16.2 WSW 25 36 - - 0.6 - - - - - - -
03/11:30pm 16.4 WSW 26 36 - - 0.6 - - - - - - -
03/11:00pm 15.2 WSW 25 37 - - 0.6 - - - - - - -
03/10:30pm 15.9 WSW 23 37 - - 0.6 - - - - - - -
03/10:00pm 17.3 WSW 24 35 - - 0.6 - - - - - - -
03/09:30pm 17.1 W 20 31 - - 0.6 - - - - - - -
03/09:00pm 17.1 W 26 38 - - 0.6 Rain - - - - - -
03/08:42pm 18.7 W 23 33 - - 0.4 - - - - - - -
03/08:30pm 18.4 W 21 30 - - 0.4 - - - - - - -
03/08:00pm 18.9 W 22 33 - - 0.4 - - - - - - -
03/07:33pm 18.8 W 18 29 - - 0.4 - - - - - - -
03/07:30pm 18.4 W 18 26 - - 0.4 - - - - - - -
03/07:09pm 19.1 W 20 31 - - 0.4 - - - - - - -
03/07:00pm 19.0 W 19 28 - - 0.4 - - - - - - -
03/06:41pm 17.6 WNW 17 27 - - 0.4 - - - - - - -
03/06:30pm 17.3 WNW 16 22 - - 0.4 - - - - - - -
03/06:00pm 18.0 WNW 15 21 - - 0.4 - - - - - - -
03/05:30pm 16.7 WNW 18 27 - - 0.4 - - - - - - -
03/05:00pm 17.0 W 22 32 - - 0.4 - - - - - - -
03/04:37pm 18.9 WNW 21 31 - - 0.0 - - - - - - -
03/04:30pm 19.7 WNW 19 27 - - 0.0 - - - - - - -
03/04:00pm 19.2 WNW 14 21 - - 0.0 - - - - - - -
03/03:30pm 21.0 WNW 16 23 - - 0.0 - - - - - - -
03/03:00pm 21.9 WNW 15 25 - - 0.0 - - - - - - -
03/02:30pm 21.8 WNW 15 21 - - 0.0 - - - - - - -
03/02:00pm 22.0 WNW 16 21 - - 0.0 - - - - - - -
03/01:30pm 21.9 WNW 15 24 - - 0.0 - - - - - - -
03/01:00pm 22.1 WNW 15 23 - - 0.0 - - - - - - -
03/12:30pm 22.1 WNW 15 21 - - 0.0 - - - - - - -
03/12:00pm 21.6 WNW 15 21 - - 0.0 - - - - - - -
03/11:30am 21.7 WNW 15 21 - - 0.0 - - - - - - -
03/11:00am 21.1 WNW 15 21 - - 0.0 - - - - - - -
03/10:30am 20.8 NNW 8 13 - - 0.0 - - - - - - -
03/10:00am 19.3 NNW 5 8 - - 0.0 - - - - - - -
03/09:30am 18.9 NNW 5 9 - - 0.0 - - - - - - -
03/09:00am 18.0 N 2 3 - - 0.0 - - - - - - -
03/08:30am 17.6 ESE 1 3 - - 0.0 - - - - - - -
03/08:00am 15.5 NE 2 3 - - 0.0 - - - - - - -
03/07:30am 13.4 ENE 4 5 - - 0.0 - - - - - - -
03/07:00am 12.1 E 4 5 - - 0.0 - - - - - - -
03/06:30am 12.5 E 5 5 - - 0.0 - - - - - - -

Other Formats:

Comma delimited format used in spreadsheet applications
http://www.bom.gov.au/fwo/IDW60701/IDW60701.94614.axf

JavaScript Object Notation format (JSON) in row-major order
http://www.bom.gov.au/fwo/IDW60701/IDW60701.94614.json